Latest Weather Observations for Coolangatta

IDQ60901

Issued at 10:31 pm EST Monday 2 May 2016 (issued every 10 minutes, with the page automatically refreshed every 10 minutes)

About weather observations | Map of Brisbane area stations | Latest observations for Brisbane area | Other Formats
Station Details ID: 040717 Name: COOLANGATTA Lat: -28.17 Lon: 153.51 Height: 4.0 m
Data from the previous 72 hours. | See also: Recent months at Coolangatta
Date/Time
EST
Tmp

°C
App
Tmp
°C
Dew
Point
°C
Rel
Hum
%
Delta-T

°C
Wind Press
QNH
hPa
Press
MSL
hPa
Rain
since
9 am
mm
Dir
 
Spd
km/h
Gust
km/h
Spd
kts
Gust
kts
02/10:00pm 21.2 22.6 20.4 95 0.5 S 13 15 7 8 1015.6 1015.6 1.6
02/09:30pm 21.5 23.4 20.5 94 0.6 S 11 15 6 8 1016.0 1016.0 1.0
02/09:00pm 21.8 24.1 20.6 93 0.8 SW 9 11 5 6 1016.2 1016.2 0.6
02/08:30pm 22.0 24.3 20.6 92 0.9 SSW 9 11 5 6 1016.3 1016.3 0.0
02/08:00pm 21.9 24.5 20.5 92 0.9 SW 7 9 4 5 1015.7 1015.7 0.0
02/07:30pm 22.0 23.9 20.5 91 1.0 SW 11 13 6 7 1015.9 1015.9 0.0
02/07:00pm 22.2 25.9 20.7 91 1.0 WSW 2 7 1 4 1015.7 1015.7 0.0
02/06:30pm 22.3 25.3 20.8 91 1.0 WSW 6 7 3 4 1015.5 1015.5 0.0
02/06:00pm 22.4 25.6 20.5 89 1.2 SSW 4 7 2 4 1015.1 1015.1 0.0
02/05:30pm 22.6 26.3 19.9 85 1.7 CALM 0 0 0 0 1014.9 1014.9 0.0
02/05:00pm 22.9 25.3 19.7 82 2.0 SE 6 7 3 4 1014.4 1014.4 0.0
02/04:30pm 23.5 25.4 19.8 80 2.4 SE 9 11 5 6 1013.9 1013.9 0.0
02/04:00pm 23.7 25.7 20.0 80 2.4 SE 9 15 5 8 1013.8 1013.8 0.0
02/03:30pm 24.0 25.4 19.5 76 2.9 ESE 11 15 6 8 1013.5 1013.5 0.0
02/03:00pm 25.0 25.7 19.6 72 3.5 ESE 15 20 8 11 1013.2 1013.2 0.0
02/02:30pm 25.7 26.5 19.1 67 4.2 ESE 13 19 7 10 1013.5 1013.5 0.0
02/02:00pm 26.0 27.1 19.6 68 4.1 SE 13 19 7 10 1013.8 1013.8 0.0
02/01:30pm 25.4 25.6 18.6 66 4.3 SE 15 20 8 11 1014.2 1014.2 0.0
02/01:00pm 25.6 26.4 19.9 70 3.7 SSE 15 20 8 11 1014.5 1014.5 0.0
02/12:30pm 24.6 24.4 19.4 73 3.3 ESE 19 22 10 12 1014.8 1014.8 0.0
02/12:00pm 24.9 25.2 19.5 72 3.5 ESE 17 26 9 14 1015.4 1015.4 0.0
02/11:30am 24.8 25.3 20.1 75 3.0 ESE 17 20 9 11 1015.9 1015.9 0.0
02/11:00am 24.5 25.2 19.6 74 3.1 SE 15 20 8 11 1016.4 1016.4 0.0
02/10:30am 24.5 25.5 20.2 77 2.8 SSE 15 19 8 10 1016.8 1016.8 0.0
02/10:00am 24.1 25.4 20.2 79 2.5 SSE 13 15 7 8 1017.1 1017.1 0.0
02/09:30am 24.0 25.5 20.5 81 2.3 SSE 13 15 7 8 1017.4 1017.4 0.0
02/09:00am 23.3 25.2 20.6 85 1.8 SSE 11 13 6 7 1017.2 1017.2 4.4
02/08:30am 23.0 25.6 20.5 86 1.6 SSE 7 11 4 6 1017.1 1017.1 4.4
02/08:00am 21.9 24.7 20.4 91 1.0 SW 6 11 3 6 1017.0 1017.0 4.4
02/07:30am 20.9 24.1 20.4 97 0.3 SW 4 7 2 4 1016.9 1016.9 4.4
02/07:00am 20.1 23.7 19.8 98 0.2 CALM 0 0 0 0 1016.8 1016.8 4.4
02/06:30am 19.3 22.5 18.8 97 0.3 CALM 0 0 0 0 1016.8 1016.8 4.4
02/06:16am 19.3 22.5 18.8 97 0.3 CALM 0 0 0 0 1016.7 1016.7 4.4
02/06:00am 19.1 22.1 18.4 96 0.4 CALM 0 0 0 0 1016.5 1016.5 4.4
02/05:30am 19.9 21.6 19.4 97 0.3 WSW 9 11 5 6 1016.1 1016.1 4.4
02/05:00am 19.8 22.3 19.1 96 0.4 S 4 7 2 4 1015.6 1015.6 4.4
02/04:30am 20.3 23.5 19.8 97 0.3 S 2 9 1 5 1015.4 1015.4 4.4
02/04:00am 20.2 23.8 19.7 97 0.3 CALM 0 0 0 0 1015.3 1015.3 4.4
02/03:30am 20.1 22.2 19.4 96 0.4 S 7 9 4 5 1015.3 1015.3 4.4
02/03:00am 20.4 23.7 19.9 97 0.3 SSW 2 6 1 3 1015.2 1015.2 4.4
02/02:30am 20.2 22.5 19.9 98 0.2 SSW 7 11 4 6 1015.3 1015.3 4.4
02/02:25am 20.2 22.2 19.9 98 0.2 SW 9 11 5 6 1015.3 1015.3 4.4
02/02:00am 20.0 20.7 19.7 98 0.2 SW 15 19 8 10 1015.5 1015.5 4.4
02/01:38am 19.9 22.1 19.6 98 0.2 W 7 9 4 5 1014.9 1014.9 4.4
02/01:30am 19.7 21.9 19.2 97 0.3 WSW 6 7 3 4 1015.0 1015.0 4.4
02/01:00am 19.6 21.7 18.9 96 0.4 SW 6 7 3 4 1015.2 1015.2 4.4
02/12:30am 20.0 23.3 19.2 95 0.5 CALM 0 0 0 0 1015.7 1015.7 4.4
02/12:00am 20.3 23.8 19.6 96 0.4 CALM 0 6 0 3 1015.7 1015.7 4.4
 
Date/Time
EST
Tmp

°C
App
Tmp
°C
Dew
Point
°C
Rel
Hum
%
Delta-T

°C
Wind Press
QNH
hPa
Press
MSL
hPa
Rain
since
9 am
mm
Dir
 
Spd
km/h
Gust
km/h
Spd
kts
Gust
kts
01/11:30pm 20.5 21.7 19.8 96 0.4 WSW 13 19 7 10 1015.9 1015.9 4.4
01/11:00pm 20.6 22.9 19.8 95 0.5 W 7 9 4 5 1016.2 1016.2 4.4
01/10:30pm 20.6 22.2 19.9 96 0.4 N 11 13 6 7 1016.1 1016.1 4.4
01/10:00pm 20.4 24.0 19.7 96 0.4 CALM 0 2 0 1 1016.8 1016.8 4.4
01/09:30pm 20.3 23.0 19.5 95 0.5 S 4 7 2 4 1017.1 1017.1 4.4
01/09:00pm 20.2 22.3 19.4 95 0.5 NW 7 9 4 5 1017.1 1017.1 4.4
01/08:30pm 20.8 22.7 19.8 94 0.6 SW 9 11 5 6 1017.2 1017.2 4.4
01/08:00pm 20.5 22.0 19.7 95 0.5 W 11 13 6 7 1016.8 1016.8 4.4
01/07:30pm 20.4 21.8 19.6 95 0.5 W 11 13 6 7 1016.4 1016.4 4.4
01/07:00pm 20.6 22.5 19.8 95 0.5 WNW 9 11 5 6 1016.1 1016.1 4.4
01/06:30pm 20.6 22.7 19.4 93 0.8 WNW 7 9 4 5 1015.8 1015.8 4.4
01/06:00pm 21.5 24.1 20.0 91 1.0 NNW 6 7 3 4 1015.8 1015.8 4.4
01/05:30pm 21.9 23.9 20.0 89 1.2 NNW 9 13 5 7 1015.5 1015.5 4.4
01/05:00pm 22.2 23.5 20.1 88 1.3 WNW 13 15 7 8 1015.7 1015.7 4.4
01/04:30pm 22.5 22.3 19.7 84 1.8 ENE 20 28 11 15 1015.1 1015.1 4.4
01/04:00pm 22.6 24.3 20.1 86 1.6 NNE 11 15 6 8 1015.8 1015.8 4.4
01/03:30pm 22.3 23.4 19.7 85 1.7 NW 13 22 7 12 1015.8 1015.8 4.4
01/03:00pm 23.1 23.7 20.2 84 1.9 N 17 22 9 12 1015.4 1015.4 4.4
01/02:30pm 22.7 23.6 20.8 89 1.2 NNE 17 22 9 12 1015.3 1015.3 4.4
01/02:00pm 22.7 24.4 21.0 90 1.1 N 13 19 7 10 1015.4 1015.4 4.4
01/01:30pm 22.6 23.9 20.9 90 1.1 N 15 19 8 10 1015.6 1015.6 4.4
01/01:00pm 22.6 24.4 21.1 91 1.0 N 13 17 7 9 1016.1 1016.1 4.2
01/12:30pm 22.3 24.2 21.3 94 0.7 NNW 13 15 7 8 1016.8 1016.8 4.0
01/12:06pm 21.9 22.4 20.9 94 0.7 N 19 24 10 13 1017.0 1017.0 4.0
01/12:00pm 22.1 22.9 21.3 95 0.5 NNE 19 24 10 13 1016.9 1016.9 4.0
01/11:30am 22.1 23.9 21.1 94 0.7 NNW 13 20 7 11 1017.8 1017.8 4.0
01/11:00am 21.8 24.3 21.0 95 0.5 NW 9 13 5 7 1018.3 1018.3 3.6
01/10:33am 21.5 23.0 20.5 94 0.6 WNW 13 17 7 9 1019.1 1019.1 2.4
01/10:30am 21.6 22.8 20.6 94 0.6 WNW 15 19 8 10 1019.1 1019.1 2.2
01/10:18am 21.5 22.6 20.5 94 0.6 WNW 15 20 8 11 1019.0 1019.0 2.2
01/10:00am 21.4 22.6 20.6 95 0.5 NW 15 20 8 11 1019.2 1019.2 2.0
01/09:30am 21.5 22.6 20.5 94 0.6 WNW 15 22 8 12 1019.7 1019.7 1.0
01/09:04am 21.8 22.1 20.3 91 1.0 NW 19 24 10 13 1019.7 1019.7 0.0
01/09:00am 21.9 22.1 20.2 90 1.1 NW 19 24 10 13 1019.7 1019.7 2.6
01/08:30am 22.1 23.3 20.6 91 1.0 WNW 15 22 8 12 1019.5 1019.5 2.6
01/08:00am 22.2 23.8 20.7 91 1.0 NW 13 19 7 10 1019.1 1019.1 2.6
01/07:30am 22.0 24.4 20.8 93 0.8 NW 9 17 5 9 1018.8 1018.8 2.6
01/07:00am 21.8 23.8 20.8 94 0.6 NW 11 15 6 8 1018.5 1018.5 2.6
01/06:30am 21.9 23.2 20.9 94 0.7 NNW 15 24 8 13 1018.3 1018.3 2.4
01/06:00am 22.0 23.4 21.0 94 0.7 NW 15 20 8 11 1018.1 1018.1 2.2
01/05:30am 21.9 23.7 21.2 96 0.5 NNW 13 17 7 9 1017.7 1017.7 2.2
01/05:00am 21.6 24.4 20.9 96 0.5 NW 7 9 4 5 1017.7 1017.7 2.0
01/04:35am 21.6 24.5 21.1 97 0.3 WNW 7 9 4 5 1017.6 1017.6 2.0
01/04:30am 21.6 24.7 21.1 97 0.3 WNW 6 9 3 5 1017.5 1017.5 2.0
01/04:23am 21.5 25.7 21.0 97 0.3 CALM 0 7 0 4 1017.6 1017.6 2.0
01/04:22am 21.5 25.7 21.0 97 0.3 CALM 0 0 0 0 1017.6 1017.6 2.0
01/04:05am 21.4 24.8 20.9 97 0.3 NE 4 11 2 6 1017.6 1017.6 2.0
01/04:04am 21.4 25.2 20.9 97 0.3 ENE 2 9 1 5 1017.6 1017.6 2.0
01/04:00am 21.4 25.6 20.9 97 0.3 CALM 0 0 0 0 1017.5 1017.5 1.6
01/03:30am 21.2 24.5 20.7 97 0.3 SE 4 7 2 4 1017.5 1017.5 1.6
01/03:00am 21.0 24.9 20.3 96 0.4 CALM 0 0 0 0 1017.6 1017.6 1.4
01/02:30am 21.2 25.3 20.7 97 0.3 CALM 0 0 0 0 1017.7 1017.7 1.4
01/02:28am 21.2 25.3 20.7 97 0.3 CALM 0 0 0 0 1017.8 1017.8 1.4
01/02:09am 21.2 24.1 20.7 97 0.3 WSW 6 7 3 4 1017.9 1017.9 1.4
01/02:00am 21.1 24.0 20.6 97 0.3 WSW 6 7 3 4 1018.0 1018.0 1.4
01/01:30am 21.1 23.7 20.4 96 0.5 WSW 7 11 4 6 1018.2 1018.2 1.4
01/01:00am 21.0 23.5 20.2 95 0.5 WSW 7 11 4 6 1018.7 1018.7 1.4
01/12:30am 21.5 25.5 20.5 94 0.6 CALM 0 0 0 0 1019.0 1019.0 1.4
01/12:00am 21.8 24.9 21.0 95 0.5 WNW 6 9 3 5 1019.2 1019.2 1.4
 
Date/Time
EST
Tmp

°C
App
Tmp
°C
Dew
Point
°C
Rel
Hum
%
Delta-T

°C
Wind Press
QNH
hPa
Press
MSL
hPa
Rain
since
9 am
mm
Dir
 
Spd
km/h
Gust
km/h
Spd
kts
Gust
kts
30/11:30pm 21.6 24.5 20.6 94 0.6 WSW 6 7 3 4 1019.5 1019.5 1.4
30/11:00pm 21.7 24.5 20.9 95 0.5 WSW 7 9 4 5 1019.6 1019.6 1.4
30/10:30pm 21.9 24.4 21.1 95 0.5 WSW 9 11 5 6 1019.8 1019.8 1.4
30/10:00pm 21.8 24.2 20.8 94 0.6 WSW 9 13 5 7 1020.0 1020.0 1.4
30/09:30pm 21.9 24.9 20.9 94 0.7 WSW 6 11 3 6 1020.1 1020.1 1.4
30/09:00pm 21.8 25.7 20.4 92 0.9 CALM 0 6 0 3 1020.3 1020.3 1.4
30/08:30pm 22.7 25.3 20.4 87 1.5 NNW 7 13 4 7 1020.2 1020.2 1.4
30/08:00pm 23.2 25.9 21.3 89 1.2 NE 9 11 5 6 1020.0 1020.0 1.4
30/07:30pm 22.5 25.9 21.0 91 1.0 SW 4 7 2 4 1019.9 1019.9 1.4
30/07:00pm 23.2 25.6 20.9 87 1.5 E 9 15 5 8 1019.6 1019.6 1.4
30/06:30pm 23.4 25.4 20.7 85 1.8 ENE 11 13 6 7 1019.5 1019.5 1.4
30/06:00pm 23.3 24.7 20.4 84 1.9 ENE 13 17 7 9 1019.4 1019.4 1.4
30/05:30pm 23.4 24.2 20.7 85 1.8 E 17 20 9 11 1019.3 1019.3 1.4
30/05:00pm 23.6 26.0 20.9 85 1.8 ESE 9 13 5 7 1018.9 1018.9 1.4
30/04:30pm 23.8 26.0 20.5 82 2.1 ESE 9 11 5 6 1018.9 1018.9 1.4
30/04:00pm 24.4 25.9 20.5 79 2.5 ESE 13 17 7 9 1018.7 1018.7 1.4
30/03:30pm 25.3 27.0 20.1 73 3.4 E 11 15 6 8 1018.6 1018.6 1.4
30/03:00pm 25.4 27.2 20.4 74 3.3 ENE 11 15 6 8 1018.7 1018.7 1.4
30/02:30pm 25.1 26.3 19.9 73 3.4 NE 13 17 7 9 1018.7 1018.7 1.4
30/02:00pm 25.2 26.8 20.0 73 3.4 NE 11 15 6 8 1018.8 1018.8 1.4
30/01:57pm 25.1 26.5 19.5 71 3.6 ENE 11 13 6 7 1018.8 1018.8 1.4
30/01:38pm 25.4 27.0 20.0 72 3.5 NE 11 15 6 8 1018.8 1018.8 1.4
30/01:30pm 25.2 27.2 20.0 73 3.4 NNE 9 13 5 7 1018.8 1018.8 1.4
30/01:00pm 25.2 27.0 19.6 71 3.6 NE 9 17 5 9 1019.2 1019.2 1.4
30/12:30pm 24.9 27.1 19.5 72 3.5 NNE 7 11 4 6 1019.6 1019.6 1.2
30/12:00pm 24.3 27.4 21.0 82 2.2 SSW 6 7 3 4 1020.1 1020.1 1.2
30/11:31am 23.1 26.5 21.0 88 1.4 NW 4 9 2 5 1020.7 1020.7 1.2
30/11:30am 23.2 26.8 21.3 89 1.2 NW 4 9 2 5 1020.7 1020.7 1.2
30/11:00am 23.0 26.0 20.9 88 1.4 NW 6 9 3 5 1021.3 1021.3 0.8
30/10:58am 23.0 26.0 20.9 88 1.4 WNW 6 9 3 5 1021.3 1021.3 0.8
30/10:30am 23.1 25.5 20.8 87 1.5 SW 9 11 5 6 1021.5 1021.5 0.4
30/10:00am 22.6 25.6 20.9 90 1.1 W 6 9 3 5 1022.0 1022.0 0.4
30/09:58am 22.7 25.8 21.0 90 1.1 WNW 6 9 3 5 1022.0 1022.0 0.4
30/09:32am 22.6 25.4 20.9 90 1.1 NNW 7 11 4 6 1022.1 1022.1 0.0
30/09:30am 22.8 25.9 21.1 90 1.1 NW 6 9 3 5 1022.0 1022.0 0.0
30/09:12am 22.6 26.1 20.3 87 1.5 NNE 2 7 1 4 1022.0 1022.0 0.0
30/09:01am 22.3 25.5 20.4 89 1.2 ENE 4 9 2 5 1022.1 1022.1 0.0
30/09:00am 22.4 25.7 20.7 90 1.1 ENE 4 9 2 5 1022.1 1022.1 24.6
30/08:30am 21.5 25.6 20.8 96 0.5 CALM 0 2 0 1 1021.9 1021.9 24.6
30/08:00am 20.9 23.6 20.6 98 0.2 SSW 7 9 4 5 1021.9 1021.9 24.6
30/07:30am 20.4 23.1 20.2 99 0.1 S 6 7 3 4 1021.7 1021.7 24.6
30/07:00am 20.1 22.6 19.9 99 0.1 S 6 6 3 3 1021.4 1021.4 24.6
30/06:30am 19.6 21.8 19.3 98 0.2 SSE 6 6 3 3 1021.1 1021.1 24.6
30/06:00am 19.5 21.7 19.2 98 0.2 SSE 6 7 3 4 1021.0 1021.0 24.6
30/05:30am 19.5 21.7 19.2 98 0.2 SSE 6 7 3 4 1020.7 1020.7 24.6
30/05:00am 20.0 21.5 19.7 98 0.2 WSW 11 15 6 8 1020.6 1020.6 24.6
30/04:30am 19.9 22.3 19.6 98 0.2 SSW 6 7 3 4 1020.3 1020.3 24.4
30/04:00am 19.8 23.3 19.5 98 0.2 CALM 0 0 0 0 1020.3 1020.3 24.4
30/03:30am 20.2 23.9 19.9 98 0.2 CALM 0 0 0 0 1020.5 1020.5 24.4
30/03:00am 20.1 22.6 19.8 98 0.2 SSW 6 9 3 5 1020.5 1020.5 24.4
30/02:45am 20.1 22.4 19.8 98 0.2 SW 7 11 4 6 1020.5 1020.5 24.4
30/02:41am 20.1 22.0 19.8 98 0.2 SW 9 11 5 6 1020.5 1020.5 24.4
30/02:30am 20.2 22.5 19.9 98 0.2 SW 7 13 4 7 1020.6 1020.6 24.4
30/02:24am 20.2 22.5 19.9 98 0.2 NNW 7 13 4 7 1020.7 1020.7 23.8
30/02:09am 19.9 21.2 19.4 97 0.3 WNW 11 15 6 8 1020.7 1020.7 18.2
30/02:00am 20.0 21.1 19.7 98 0.2 WSW 13 17 7 9 1020.7 1020.7 17.0
30/01:51am 20.0 21.1 19.7 98 0.2 WSW 13 17 7 9 1020.8 1020.8 17.0
30/01:30am 19.9 21.2 19.4 97 0.3 SW 11 15 6 8 1021.2 1021.2 16.4
30/01:00am 20.0 21.8 19.5 97 0.3 SW 9 11 5 6 1021.3 1021.3 16.4
30/12:43am 20.1 21.5 19.6 97 0.3 WSW 11 13 6 7 1021.5 1021.5 16.4
30/12:30am 20.2 22.1 19.7 97 0.3 SW 9 11 5 6 1021.7 1021.7 16.2
30/12:21am 20.2 22.1 19.7 97 0.3 S 9 13 5 7 1021.8 1021.8 15.6
30/12:00am 20.2 21.3 19.7 97 0.3 SW 13 15 7 8 1021.8 1021.8 15.0
 
Date/Time
EST
Tmp

°C
App
Tmp
°C
Dew
Point
°C
Rel
Hum
%
Delta-T

°C
Wind Press
QNH
hPa
Press
MSL
hPa
Rain
since
9 am
mm
Dir
 
Spd
km/h
Gust
km/h
Spd
kts
Gust
kts
29/11:53pm 20.3 21.8 19.8 97 0.3 WSW 11 15 6 8 1021.9 1021.9 15.0
29/11:47pm 20.3 22.1 19.6 96 0.4 SW 9 13 5 7 1022.0 1022.0 15.0
29/11:30pm 20.3 21.7 19.6 96 0.4 W 11 15 6 8 1022.3 1022.3 14.8
29/11:10pm 20.6 23.4 19.6 94 0.6 - 4 17 2 9 1022.8 1022.8 10.2
29/11:00pm 20.8 21.5 19.6 93 0.8 N 15 24 8 13 1022.7 1022.7 2.6

Latest Capital City Observations: Canberra | Sydney | Melbourne | Brisbane | Adelaide | Perth | Hobart | Darwin

Other Formats:

Comma delimited format used in spreadsheet applications
http://www.bom.gov.au/fwo/IDQ60901/IDQ60901.94592.axf

JavaScript Object Notation format (JSON) in row-major order
http://www.bom.gov.au/fwo/IDQ60901/IDQ60901.94592.json